Time;durP1;ratioP1;P1;durP2;ratioP2;P2;SDS_P1;SDS_P2;PMS_P1;PMS_P2;Temp;Humidity;BMP_temperature;BMP_pressure;BME280_temperature;BME280_humidity;BME280_pressure;Samples;Min_cycle;Max_cycle;Signal;HPM_P1;HPM_P2
2022/09/16 00:00:04;;;;;;;;;;;12.30;99.90;;;;;;5073977;28;19923;-63
2022/09/16 00:02:29;;;;;;;;;;;12.30;99.90;;;;;;5065831;28;19909;-63
2022/09/16 00:04:55;;;;;;;;;;;12.20;99.90;;;;;;5078009;28;19935;-63
2022/09/16 00:07:20;;;;;;;;;;;12.30;99.90;;;;;;5077173;28;19947;-63
2022/09/16 00:09:46;;;;;;;;;;;12.30;99.90;;;;;;5059486;28;20086;-63
2022/09/16 00:12:11;;;;;;;;;;;12.30;99.90;;;;;;5076286;28;19917;-63
2022/09/16 00:14:37;;;;;;;;;;;12.20;99.90;;;;;;5076668;28;19912;-64
2022/09/16 00:17:03;;;;;;;;;;;12.10;99.90;;;;;;5069459;28;19924;-63
2022/09/16 00:19:28;;;;;;;;;;;12.10;99.90;;;;;;5071822;28;19912;-64
2022/09/16 00:21:54;;;;;;;;;;;12.00;99.90;;;;;;5072214;28;19912;-64
2022/09/16 00:24:19;;;;;;;;;;;11.80;99.90;;;;;;5077352;28;20344;-63
2022/09/16 00:26:45;;;;;;;;;;;11.80;99.90;;;;;;5051676;28;19913;-63
2022/09/16 00:29:10;;;;;;;;;;;11.80;99.90;;;;;;5070888;28;19912;-62
2022/09/16 00:31:36;;;;;;;;;;;11.70;99.90;;;;;;5077321;28;19917;-63
2022/09/16 00:34:02;;;;;;;;;;;11.60;99.90;;;;;;5074353;28;20036;-64
2022/09/16 00:36:29;;;;;;;;;;;11.70;99.90;;;;;;5077415;28;19916;-63
2022/09/16 00:38:54;;;;;;;;;;;11.60;99.90;;;;;;5078360;28;19919;-63
2022/09/16 00:41:22;;;;;;;;;;;11.60;99.90;;;;;;5059661;28;20376;-62
2022/09/16 00:43:47;;;;;;;;;;;11.50;99.90;;;;;;5066504;28;19915;-63
2022/09/16 00:46:13;;;;;;;;;;;11.40;99.90;;;;;;5074025;28;19927;-63
2022/09/16 00:48:39;;;;;;;;;;;11.50;99.90;;;;;;5069234;28;19912;-63
2022/09/16 00:51:05;;;;;;;;;;;11.50;99.90;;;;;;5075323;28;19955;-63
2022/09/16 00:53:38;;;;;;;;;;;11.40;99.90;;;;;;5070099;28;20325;-63
2022/09/16 00:56:05;;;;;;;;;;;11.50;99.90;;;;;;5074801;28;20002;-63
2022/09/16 00:58:31;;;;;;;;;;;11.40;99.90;;;;;;5056373;28;19912;-63
2022/09/16 01:00:56;;;;;;;;;;;11.30;99.90;;;;;;5073427;28;19927;-64
2022/09/16 01:03:22;;;;;;;;;;;11.30;99.90;;;;;;5054470;28;19958;-63
2022/09/16 01:05:48;;;;;;;;;;;11.20;99.90;;;;;;5076854;28;19916;-63
2022/09/16 01:08:14;;;;;;;;;;;11.30;99.90;;;;;;5073933;28;19927;-63
2022/09/16 01:10:40;;;;;;;;;;;11.30;99.90;;;;;;5073888;28;20236;-63
2022/09/16 01:13:07;;;;;;;;;;;11.20;99.90;;;;;;5056502;28;20094;-63
2022/09/16 01:15:39;;;;;;;;;;;11.10;99.90;;;;;;5074745;28;19912;-63
2022/09/16 01:18:04;;;;;;;;;;;11.10;99.90;;;;;;5075293;28;19920;-63
2022/09/16 01:20:49;;;;;;;;;;;11.20;99.90;;;;;;5074771;28;20359;-63
2022/09/16 01:23:18;;;;;;;;;;;11.20;99.90;;;;;;5055933;28;19919;-63
2022/09/16 01:26:02;;;;;;;;;;;11.30;99.90;;;;;;5073894;28;19913;-63
2022/09/16 01:28:28;;;;;;;;;;;11.40;99.90;;;;;;5073682;28;19912;-63
2022/09/16 01:31:19;;;;;;;;;;;11.40;99.90;;;;;;5080602;28;20019;-63
2022/09/16 01:34:04;;;;;;;;;;;11.50;99.90;;;;;;5074393;28;19916;-63
2022/09/16 01:36:29;;;;;;;;;;;11.50;99.90;;;;;;5076240;28;19980;-63
2022/09/16 01:39:07;;;;;;;;;;;11.50;99.90;;;;;;5080382;28;19952;-63
2022/09/16 01:42:02;;;;;;;;;;;11.50;99.90;;;;;;5074213;28;19920;-64
2022/09/16 01:44:33;;;;;;;;;;;11.50;99.90;;;;;;5001916;28;19998;-63
2022/09/16 01:47:05;;;;;;;;;;;11.50;99.90;;;;;;5077590;28;19912;-63
2022/09/16 01:49:49;;;;;;;;;;;11.50;99.90;;;;;;5077794;28;19924;-64
2022/09/16 01:52:33;;;;;;;;;;;11.40;99.90;;;;;;5078165;28;20374;-63
2022/09/16 01:55:00;;;;;;;;;;;11.40;99.90;;;;;;5078471;28;19916;-63
2022/09/16 01:57:34;;;;;;;;;;;11.40;99.90;;;;;;5080252;28;19912;-63
2022/09/16 02:00:05;;;;;;;;;;;11.40;99.90;;;;;;5082976;28;19913;-63
2022/09/16 02:02:34;;;;;;;;;;;11.40;99.90;;;;;;5062953;28;19912;-64
2022/09/16 02:05:02;;;;;;;;;;;11.50;99.90;;;;;;5079031;28;19908;-63
2022/09/16 02:07:32;;;;;;;;;;;11.30;99.90;;;;;;5083035;28;19912;-63
2022/09/16 02:10:03;;;;;;;;;;;11.30;99.90;;;;;;5084555;28;19928;-64
2022/09/16 02:12:31;;;;;;;;;;;11.30;99.90;;;;;;5082147;28;19920;-62
2022/09/16 02:15:01;;;;;;;;;;;11.30;99.90;;;;;;5057371;28;19987;-64
2022/09/16 02:17:29;;;;;;;;;;;11.30;99.90;;;;;;5082183;28;19916;-63
2022/09/16 02:20:00;;;;;;;;;;;11.30;99.90;;;;;;5080802;28;19973;-63
2022/09/16 02:22:31;;;;;;;;;;;11.40;99.90;;;;;;5082728;28;20329;-63
2022/09/16 02:24:58;;;;;;;;;;;11.40;99.90;;;;;;5080479;28;19913;-63
2022/09/16 02:27:24;;;;;;;;;;;11.40;99.90;;;;;;5080019;28;19916;-63
2022/09/16 02:29:52;;;;;;;;;;;11.40;99.90;;;;;;5080996;28;19913;-64
2022/09/16 02:32:19;;;;;;;;;;;11.40;99.90;;;;;;5081406;28;19970;-63
2022/09/16 02:34:46;;;;;;;;;;;11.30;99.90;;;;;;5078614;28;19912;-64
2022/09/16 02:37:23;;;;;;;;;;;11.30;99.90;;;;;;5081242;28;19920;-63
2022/09/16 02:39:53;;;;;;;;;;;11.30;99.90;;;;;;5064129;28;20725;-63
2022/09/16 02:42:19;;;;;;;;;;;11.30;99.90;;;;;;5081898;28;19943;-64
2022/09/16 02:44:45;;;;;;;;;;;11.30;99.90;;;;;;5077640;28;20364;-63
2022/09/16 02:47:25;;;;;;;;;;;11.30;99.90;;;;;;5078094;28;20394;-62
2022/09/16 02:50:02;;;;;;;;;;;11.30;99.90;;;;;;5077774;28;19935;-63
2022/09/16 02:52:37;;;;;;;;;;;11.20;99.90;;;;;;5077520;28;20012;-63
2022/09/16 02:55:26;;;;;;;;;;;11.20;99.90;;;;;;5057903;28;19912;-63
2022/09/16 02:57:51;;;;;;;;;;;11.20;99.90;;;;;;5050173;28;20035;-63
2022/09/16 03:00:17;;;;;;;;;;;11.30;99.90;;;;;;5058871;28;19985;-63
2022/09/16 03:02:43;;;;;;;;;;;11.30;99.90;;;;;;5077259;28;19916;-63
2022/09/16 03:05:09;;;;;;;;;;;11.30;99.90;;;;;;5078639;28;19916;-63
2022/09/16 03:07:35;;;;;;;;;;;11.30;99.90;;;;;;5076788;28;19912;-64
2022/09/16 03:10:01;;;;;;;;;;;11.30;99.90;;;;;;5075797;28;19927;-64
2022/09/16 03:12:41;;;;;;;;;;;11.30;99.90;;;;;;5076145;28;19913;-62
2022/09/16 03:15:10;;;;;;;;;;;11.30;99.90;;;;;;5075391;28;20774;-63
2022/09/16 03:17:35;;;;;;;;;;;11.40;99.90;;;;;;5075922;28;19916;-63
2022/09/16 03:20:19;;;;;;;;;;;11.40;99.90;;;;;;5075332;28;19987;-63
2022/09/16 03:22:48;;;;;;;;;;;11.50;99.90;;;;;;5070619;28;19913;-63
2022/09/16 03:25:22;;;;;;;;;;;11.70;99.90;;;;;;5074398;28;19913;-62
2022/09/16 03:27:54;;;;;;;;;;;11.80;99.90;;;;;;5077038;28;19912;-63
2022/09/16 03:30:20;;;;;;;;;;;11.80;99.90;;;;;;5050805;28;19946;-63
2022/09/16 03:32:55;;;;;;;;;;;11.80;99.90;;;;;;5059773;28;20018;-63
2022/09/16 03:35:25;;;;;;;;;;;11.90;99.90;;;;;;5075753;28;19966;-62
2022/09/16 03:37:52;;;;;;;;;;;11.90;99.90;;;;;;5076343;28;19912;-63
2022/09/16 03:40:19;;;;;;;;;;;11.90;99.90;;;;;;5071797;28;19912;-63
2022/09/16 03:42:44;;;;;;;;;;;12.00;99.90;;;;;;5076485;28;20283;-62
2022/09/16 03:45:15;;;;;;;;;;;12.10;99.90;;;;;;5077304;28;19966;-63
2022/09/16 03:47:41;;;;;;;;;;;12.10;99.90;;;;;;5074877;28;19935;-63
2022/09/16 03:50:07;;;;;;;;;;;12.10;99.90;;;;;;5074665;28;20347;-63
2022/09/16 03:52:32;;;;;;;;;;;12.00;99.90;;;;;;5074648;28;19920;-63
2022/09/16 03:54:58;;;;;;;;;;;12.00;99.90;;;;;;5073510;28;19920;-64
2022/09/16 03:57:23;;;;;;;;;;;12.00;99.90;;;;;;5078927;28;19912;-64
2022/09/16 03:59:49;;;;;;;;;;;11.90;99.90;;;;;;5058904;28;20171;-64
2022/09/16 04:02:14;;;;;;;;;;;12.00;99.90;;;;;;5075631;28;19921;-62
2022/09/16 04:04:40;;;;;;;;;;;11.90;99.90;;;;;;5053194;28;19918;-63
2022/09/16 04:07:05;;;;;;;;;;;11.80;99.90;;;;;;5071130;28;19912;-63
2022/09/16 04:09:31;;;;;;;;;;;12.00;99.90;;;;;;5059133;28;19970;-63
2022/09/16 04:11:56;;;;;;;;;;;12.00;99.90;;;;;;5070621;28;19920;-63
2022/09/16 04:14:22;;;;;;;;;;;12.10;99.90;;;;;;5061167;28;19955;-62
2022/09/16 04:16:48;;;;;;;;;;;12.20;99.90;;;;;;5073363;28;19958;-63
2022/09/16 04:19:13;;;;;;;;;;;12.20;99.90;;;;;;5076913;28;19920;-63
2022/09/16 04:21:40;;;;;;;;;;;12.20;99.90;;;;;;5075349;28;19912;-63
2022/09/16 04:24:06;;;;;;;;;;;12.20;99.90;;;;;;5075953;28;19912;-63
2022/09/16 04:26:31;;;;;;;;;;;12.20;99.90;;;;;;5058635;28;19935;-63
2022/09/16 04:28:57;;;;;;;;;;;12.10;99.90;;;;;;5071001;28;19935;-63
2022/09/16 04:31:22;;;;;;;;;;;12.00;99.90;;;;;;5075780;28;19972;-63
2022/09/16 04:33:48;;;;;;;;;;;12.00;99.90;;;;;;5076503;28;19919;-63
2022/09/16 04:36:18;;;;;;;;;;;11.90;99.90;;;;;;5076424;28;19912;-63
2022/09/16 04:38:44;;;;;;;;;;;11.90;99.90;;;;;;5077015;28;19913;-63
2022/09/16 04:41:13;;;;;;;;;;;11.90;99.90;;;;;;5054146;28;19976;-63
2022/09/16 04:43:39;;;;;;;;;;;11.70;99.90;;;;;;5074760;28;19923;-63
2022/09/16 04:46:05;;;;;;;;;;;11.70;99.90;;;;;;5076347;28;19912;-63
2022/09/16 04:48:31;;;;;;;;;;;11.50;99.90;;;;;;5076991;28;19923;-63
2022/09/16 04:51:04;;;;;;;;;;;11.30;99.90;;;;;;5073662;28;19974;-63
2022/09/16 04:53:29;;;;;;;;;;;11.30;99.90;;;;;;5076194;28;19912;-64
2022/09/16 04:56:01;;;;;;;;;;;11.30;99.90;;;;;;5073763;28;19936;-64
2022/09/16 04:58:28;;;;;;;;;;;11.30;99.90;;;;;;5075803;28;19940;-63
2022/09/16 05:00:53;;;;;;;;;;;11.40;99.90;;;;;;5073630;28;19966;-62
2022/09/16 05:03:19;;;;;;;;;;;11.40;99.90;;;;;;5079549;28;19920;-63
2022/09/16 05:05:44;;;;;;;;;;;11.40;99.90;;;;;;5082058;28;19996;-64
2022/09/16 05:08:10;;;;;;;;;;;11.30;99.90;;;;;;5079169;28;19952;-64
2022/09/16 05:10:35;;;;;;;;;;;11.30;99.90;;;;;;5078195;28;20370;-64
2022/09/16 05:13:01;;;;;;;;;;;11.30;99.90;;;;;;5076908;28;19912;-63
2022/09/16 05:15:26;;;;;;;;;;;11.20;99.90;;;;;;5076895;28;20401;-64
2022/09/16 05:17:52;;;;;;;;;;;11.20;99.90;;;;;;5076950;28;19934;-64
2022/09/16 05:20:18;;;;;;;;;;;11.20;99.90;;;;;;5056578;28;20440;-63
2022/09/16 05:22:43;;;;;;;;;;;11.20;99.90;;;;;;5075957;28;19913;-63
2022/09/16 05:25:09;;;;;;;;;;;11.10;99.90;;;;;;5059938;28;19966;-63
2022/09/16 05:27:34;;;;;;;;;;;11.10;99.90;;;;;;5077634;28;20435;-62
2022/09/16 05:30:00;;;;;;;;;;;11.00;99.90;;;;;;5076543;28;20253;-64
2022/09/16 05:32:26;;;;;;;;;;;10.90;99.90;;;;;;5077382;28;19924;-63
2022/09/16 05:34:52;;;;;;;;;;;10.90;99.90;;;;;;5053302;28;19920;-63
2022/09/16 05:37:17;;;;;;;;;;;10.90;99.90;;;;;;5075412;28;19913;-63
2022/09/16 05:39:43;;;;;;;;;;;10.90;99.90;;;;;;5072664;28;19916;-63
2022/09/16 05:42:08;;;;;;;;;;;10.90;99.90;;;;;;5077507;28;19928;-64
2022/09/16 05:44:34;;;;;;;;;;;10.80;99.90;;;;;;5074283;28;20306;-63
2022/09/16 05:47:00;;;;;;;;;;;10.80;99.90;;;;;;5076308;28;19916;-62
2022/09/16 05:49:26;;;;;;;;;;;10.80;99.90;;;;;;5075762;28;19912;-64
2022/09/16 05:51:51;;;;;;;;;;;10.70;99.90;;;;;;5076522;28;19943;-64
2022/09/16 05:54:17;;;;;;;;;;;10.80;99.90;;;;;;5076226;28;19917;-64
2022/09/16 05:56:43;;;;;;;;;;;10.80;99.90;;;;;;5076007;28;19917;-63
2022/09/16 05:59:09;;;;;;;;;;;10.70;99.90;;;;;;5058037;28;19959;-63
2022/09/16 06:01:35;;;;;;;;;;;10.70;99.90;;;;;;5070788;28;19984;-63
2022/09/16 06:04:02;;;;;;;;;;;10.70;99.90;;;;;;5077914;28;19947;-63
2022/09/16 06:06:28;;;;;;;;;;;10.70;99.90;;;;;;5076914;28;19913;-63
2022/09/16 06:08:57;;;;;;;;;;;10.70;99.90;;;;;;5076239;28;20219;-63
2022/09/16 06:11:23;;;;;;;;;;;10.70;99.90;;;;;;5074497;28;19920;-64
2022/09/16 06:13:55;;;;;;;;;;;10.80;99.90;;;;;;5072333;28;20003;-63
2022/09/16 06:16:21;;;;;;;;;;;10.70;99.90;;;;;;5056974;28;19912;-64
2022/09/16 06:18:47;;;;;;;;;;;10.70;99.90;;;;;;5077146;28;19916;-63
2022/09/16 06:21:12;;;;;;;;;;;10.70;99.90;;;;;;5075119;28;19964;-64
2022/09/16 06:23:38;;;;;;;;;;;10.70;99.90;;;;;;5059113;28;19974;-63
2022/09/16 06:26:05;;;;;;;;;;;10.70;99.90;;;;;;5076622;28;19982;-63
2022/09/16 06:28:31;;;;;;;;;;;10.70;99.90;;;;;;5075706;28;19969;-64
2022/09/16 06:31:03;;;;;;;;;;;10.70;99.90;;;;;;5076252;28;19921;-63
2022/09/16 06:33:29;;;;;;;;;;;10.70;99.90;;;;;;5076085;28;19935;-63
2022/09/16 06:35:56;;;;;;;;;;;10.70;99.90;;;;;;5078526;28;19913;-64
2022/09/16 06:38:22;;;;;;;;;;;10.70;99.90;;;;;;5079820;28;19999;-63
2022/09/16 06:40:49;;;;;;;;;;;10.70;99.90;;;;;;5075760;28;20355;-63
2022/09/16 06:43:15;;;;;;;;;;;10.70;99.90;;;;;;5051434;28;20379;-64
2022/09/16 06:45:40;;;;;;;;;;;10.70;99.90;;;;;;5056951;28;19924;-65
2022/09/16 06:48:06;;;;;;;;;;;10.80;99.90;;;;;;5074611;28;19913;-64
2022/09/16 06:50:31;;;;;;;;;;;10.80;99.90;;;;;;5074583;28;19934;-65
2022/09/16 06:52:57;;;;;;;;;;;10.80;99.90;;;;;;5050899;28;20324;-63
2022/09/16 06:55:22;;;;;;;;;;;10.90;99.90;;;;;;5068579;28;19922;-65
2022/09/16 06:57:48;;;;;;;;;;;10.90;99.90;;;;;;5068650;28;19967;-64
2022/09/16 07:00:13;;;;;;;;;;;11.00;99.90;;;;;;5065198;28;19912;-61
2022/09/16 07:02:39;;;;;;;;;;;11.10;99.90;;;;;;5072368;28;19912;-64
2022/09/16 07:05:05;;;;;;;;;;;11.10;99.90;;;;;;5068304;28;19912;-63
2022/09/16 07:07:31;;;;;;;;;;;11.10;99.90;;;;;;5074411;28;19913;-63
2022/09/16 07:09:57;;;;;;;;;;;11.20;99.90;;;;;;5069173;28;19955;-64
2022/09/16 07:12:23;;;;;;;;;;;11.20;99.90;;;;;;5076059;28;19921;-63
2022/09/16 07:14:48;;;;;;;;;;;11.40;99.90;;;;;;5071673;28;19924;-63
2022/09/16 07:17:14;;;;;;;;;;;11.50;99.90;;;;;;5075832;28;20329;-64
2022/09/16 07:19:41;;;;;;;;;;;11.60;99.90;;;;;;5069426;28;19912;-63
2022/09/16 07:22:06;;;;;;;;;;;11.70;99.90;;;;;;5070244;28;19923;-62
2022/09/16 07:24:32;;;;;;;;;;;11.90;99.90;;;;;;5055074;28;19994;-63
2022/09/16 07:26:57;;;;;;;;;;;11.80;99.90;;;;;;5070746;28;19912;-63
2022/09/16 07:29:23;;;;;;;;;;;11.90;99.90;;;;;;5073428;28;20047;-63
2022/09/16 07:31:49;;;;;;;;;;;12.10;99.90;;;;;;5075884;28;19920;-64
2022/09/16 07:34:14;;;;;;;;;;;12.10;99.90;;;;;;5071060;28;20278;-63
2022/09/16 07:36:41;;;;;;;;;;;12.20;99.90;;;;;;5082282;28;20662;-63
2022/09/16 07:39:07;;;;;;;;;;;12.30;99.90;;;;;;5079980;28;19939;-64
2022/09/16 07:41:34;;;;;;;;;;;12.30;99.90;;;;;;5080202;28;20324;-63
2022/09/16 07:44:00;;;;;;;;;;;12.50;99.90;;;;;;5076615;28;19913;-63
2022/09/16 07:46:27;;;;;;;;;;;12.60;99.90;;;;;;5080058;28;19934;-64
2022/09/16 07:48:53;;;;;;;;;;;12.60;99.90;;;;;;5065406;28;19912;-64
2022/09/16 07:51:20;;;;;;;;;;;12.80;99.90;;;;;;5079391;28;20311;-64
2022/09/16 07:53:47;;;;;;;;;;;12.90;99.90;;;;;;5074275;28;19987;-63
2022/09/16 07:56:16;;;;;;;;;;;12.90;99.90;;;;;;5075586;28;19916;-63
2022/09/16 07:58:44;;;;;;;;;;;13.00;99.90;;;;;;5075470;28;19934;-65
2022/09/16 08:01:10;;;;;;;;;;;13.10;99.90;;;;;;5071540;28;20463;-64
2022/09/16 08:03:36;;;;;;;;;;;13.20;99.90;;;;;;5052482;28;19948;-64
2022/09/16 08:06:06;;;;;;;;;;;13.30;99.90;;;;;;5075411;28;20019;-65
2022/09/16 08:08:32;;;;;;;;;;;13.40;99.90;;;;;;5071965;28;19988;-65
2022/09/16 08:10:58;;;;;;;;;;;13.60;99.90;;;;;;5079768;28;19916;-64
2022/09/16 08:13:23;;;;;;;;;;;13.60;99.90;;;;;;5074129;28;19927;-64
2022/09/16 08:15:49;;;;;;;;;;;13.60;99.90;;;;;;5079412;28;19913;-63
2022/09/16 08:18:15;;;;;;;;;;;13.70;99.90;;;;;;5078662;28;19969;-62
2022/09/16 08:20:41;;;;;;;;;;;13.70;99.90;;;;;;5053081;28;20005;-63
2022/09/16 08:23:06;;;;;;;;;;;13.90;99.90;;;;;;5087423;28;19921;-64
2022/09/16 08:25:32;;;;;;;;;;;13.90;99.90;;;;;;5071096;28;20351;-65
2022/09/16 08:27:57;;;;;;;;;;;13.90;99.90;;;;;;5079713;28;19917;-65
2022/09/16 08:30:23;;;;;;;;;;;14.00;99.90;;;;;;5076120;28;19917;-64
2022/09/16 08:32:54;;;;;;;;;;;13.90;99.90;;;;;;5076917;28;19917;-64
2022/09/16 08:35:20;;;;;;;;;;;13.90;99.90;;;;;;5059520;28;19916;-62
2022/09/16 08:37:45;;;;;;;;;;;13.90;99.90;;;;;;5076835;28;19912;-64
2022/09/16 08:40:14;;;;;;;;;;;14.00;99.90;;;;;;5075601;28;19912;-63
2022/09/16 08:42:51;;;;;;;;;;;14.00;99.90;;;;;;5053780;28;19986;-64
2022/09/16 08:45:19;;;;;;;;;;;14.10;99.90;;;;;;5072378;28;19913;-64
2022/09/16 08:48:17;;;;;;;;;;;14.20;99.90;;;;;;5069317;28;19913;-65
2022/09/16 08:50:45;;;;;;;;;;;14.30;99.90;;;;;;5017677;28;19917;-65
2022/09/16 08:53:14;;;;;;;;;;;14.50;99.90;;;;;;5077297;28;20084;-63
2022/09/16 08:55:41;;;;;;;;;;;14.40;99.90;;;;;;5079185;28;20267;-64
2022/09/16 08:58:30;;;;;;;;;;;14.50;99.90;;;;;;5078669;28;19913;-64
2022/09/16 09:00:57;;;;;;;;;;;14.50;99.90;;;;;;5057637;28;19912;-64
2022/09/16 09:03:22;;;;;;;;;;;14.40;99.90;;;;;;5079216;28;19920;-64
2022/09/16 09:05:51;;;;;;;;;;;14.40;99.90;;;;;;5079117;28;20275;-63
2022/09/16 09:08:16;;;;;;;;;;;14.60;99.90;;;;;;5078199;28;19932;-63
2022/09/16 09:10:42;;;;;;;;;;;14.70;99.90;;;;;;5079163;28;20363;-64
2022/09/16 09:13:27;;;;;;;;;;;14.70;99.90;;;;;;5054657;28;19919;-63
2022/09/16 09:15:53;;;;;;;;;;;14.80;99.90;;;;;;5064450;28;19947;-63
2022/09/16 09:18:41;;;;;;;;;;;15.00;99.90;;;;;;5061680;28;19912;-64
2022/09/16 09:21:33;;;;;;;;;;;15.00;99.90;;;;;;5027336;28;20360;-63
2022/09/16 09:24:08;;;;;;;;;;;15.00;99.90;;;;;;5075546;28;19913;-64
2022/09/16 09:26:37;;;;;;;;;;;15.20;99.90;;;;;;5076574;28;19923;-64
2022/09/16 09:29:03;;;;;;;;;;;15.10;99.90;;;;;;5073025;28;19928;-63
2022/09/16 09:31:35;;;;;;;;;;;15.20;99.90;;;;;;5052837;28;19971;-64
2022/09/16 09:34:05;;;;;;;;;;;15.10;99.90;;;;;;5069634;28;19912;-64
2022/09/16 09:36:30;;;;;;;;;;;15.00;99.90;;;;;;5073994;28;19920;-64
2022/09/16 09:39:05;;;;;;;;;;;15.00;99.90;;;;;;5080077;28;19912;-64
2022/09/16 09:41:37;;;;;;;;;;;15.00;99.90;;;;;;5058344;28;19924;-64
2022/09/16 09:44:14;;;;;;;;;;;15.00;99.90;;;;;;5078229;28;19916;-65
2022/09/16 09:46:44;;;;;;;;;;;15.10;99.90;;;;;;5074831;28;19947;-63
2022/09/16 09:49:12;;;;;;;;;;;14.90;99.90;;;;;;5080770;28;19916;-63
2022/09/16 09:51:41;;;;;;;;;;;15.00;99.90;;;;;;5060186;28;19921;-63
2022/09/16 09:54:22;;;;;;;;;;;15.00;99.90;;;;;;5084081;28;19912;-63
2022/09/16 09:56:49;;;;;;;;;;;15.10;99.90;;;;;;5063159;28;20035;-64
2022/09/16 09:59:26;;;;;;;;;;;15.20;98.50;;;;;;5079406;28;19920;-63
2022/09/16 10:01:55;;;;;;;;;;;15.30;98.70;;;;;;5079640;28;19946;-64
2022/09/16 10:04:21;;;;;;;;;;;15.40;97.70;;;;;;5080452;28;19920;-63
2022/09/16 10:06:47;;;;;;;;;;;15.50;96.90;;;;;;5054266;28;19913;-64
2022/09/16 10:09:13;;;;;;;;;;;15.40;97.00;;;;;;5080087;28;19966;-63
2022/09/16 10:11:47;;;;;;;;;;;15.60;96.80;;;;;;5078415;28;19965;-64
2022/09/16 10:14:29;;;;;;;;;;;15.60;94.50;;;;;;5080773;28;19916;-64
2022/09/16 10:16:56;;;;;;;;;;;15.50;94.40;;;;;;5078822;28;19951;-64
2022/09/16 10:19:23;;;;;;;;;;;15.40;95.00;;;;;;5065429;28;19969;-64
2022/09/16 10:21:52;;;;;;;;;;;15.40;95.40;;;;;;5083083;28;20409;-64
2022/09/16 10:24:23;;;;;;;;;;;15.40;92.60;;;;;;5082265;28;19992;-63
2022/09/16 10:26:49;;;;;;;;;;;15.50;91.40;;;;;;5074403;28;19970;-64
2022/09/16 10:29:16;;;;;;;;;;;15.60;90.40;;;;;;5080512;28;19920;-64
2022/09/16 10:31:42;;;;;;;;;;;15.70;90.20;;;;;;5081211;28;19938;-65
2022/09/16 10:34:27;;;;;;;;;;;15.80;88.80;;;;;;5077102;28;20003;-64
2022/09/16 10:37:16;;;;;;;;;;;15.90;90.00;;;;;;5063328;28;19920;-66
2022/09/16 10:39:43;;;;;;;;;;;15.90;89.00;;;;;;5064551;28;19913;-64
2022/09/16 10:42:20;;;;;;;;;;;16.00;85.50;;;;;;5055966;28;19913;-63
2022/09/16 10:44:47;;;;;;;;;;;15.90;86.20;;;;;;5076644;28;19920;-65
2022/09/16 10:47:20;;;;;;;;;;;15.80;85.50;;;;;;5083311;28;19913;-64
2022/09/16 10:49:48;;;;;;;;;;;15.90;84.40;;;;;;5080732;28;19919;-64
2022/09/16 10:52:16;;;;;;;;;;;15.90;78.40;;;;;;5078321;28;19928;-64
2022/09/16 10:54:42;;;;;;;;;;;15.90;79.10;;;;;;5082469;28;19913;-62
2022/09/16 10:57:19;;;;;;;;;;;15.80;81.00;;;;;;5081269;28;19988;-63
2022/09/16 10:59:54;;;;;;;;;;;15.80;80.30;;;;;;5077760;28;19947;-63
2022/09/16 11:02:39;;;;;;;;;;;16.10;79.10;;;;;;5084849;28;19917;-63
2022/09/16 11:05:17;;;;;;;;;;;16.30;75.80;;;;;;5062141;28;19943;-63
2022/09/16 11:07:42;;;;;;;;;;;16.60;73.80;;;;;;5083966;28;19916;-64
2022/09/16 11:10:22;;;;;;;;;;;16.80;71.60;;;;;;5063090;28;20376;-63
2022/09/16 11:12:50;;;;;;;;;;;16.70;69.60;;;;;;5081462;28;19922;-63
2022/09/16 11:15:35;;;;;;;;;;;16.90;71.70;;;;;;5089992;28;19963;-64
2022/09/16 11:18:13;;;;;;;;;;;16.90;70.40;;;;;;5063261;28;19912;-63
2022/09/16 11:20:39;;;;;;;;;;;16.80;71.80;;;;;;5054287;28;19935;-64
2022/09/16 11:23:23;;;;;;;;;;;16.70;71.30;;;;;;5073320;28;19992;-63
2022/09/16 11:25:54;;;;;;;;;;;16.60;73.00;;;;;;5074991;28;20019;-63
2022/09/16 11:28:35;;;;;;;;;;;16.40;75.40;;;;;;5075613;28;20011;-65
2022/09/16 11:31:03;;;;;;;;;;;16.40;74.80;;;;;;5073149;28;19960;-63
2022/09/16 11:33:40;;;;;;;;;;;16.60;75.20;;;;;;5071087;28;19917;-65
2022/09/16 11:36:26;;;;;;;;;;;16.60;70.20;;;;;;5053966;28;19913;-64
2022/09/16 11:39:02;;;;;;;;;;;16.60;71.30;;;;;;5027924;28;19975;-65
2022/09/16 11:41:33;;;;;;;;;;;16.70;70.30;;;;;;5073588;28;20411;-64
2022/09/16 11:43:59;;;;;;;;;;;16.70;69.50;;;;;;5071224;28;19969;-64
2022/09/16 11:46:27;;;;;;;;;;;16.60;66.70;;;;;;5074039;28;20351;-64
2022/09/16 11:49:19;;;;;;;;;;;16.60;66.90;;;;;;5073478;28;19921;-64
2022/09/16 11:51:47;;;;;;;;;;;16.50;64.50;;;;;;5047313;28;19928;-64
2022/09/16 11:54:25;;;;;;;;;;;16.60;64.00;;;;;;5070873;28;19916;-64
2022/09/16 11:57:11;;;;;;;;;;;16.80;62.10;;;;;;5071042;28;19940;-65
2022/09/16 11:59:40;;;;;;;;;;;16.80;62.80;;;;;;5070873;28;19919;-64
2022/09/16 12:02:25;;;;;;;;;;;17.00;62.90;;;;;;5075140;28;19939;-64
2022/09/16 12:05:00;;;;;;;;;;;17.20;61.40;;;;;;5070039;28;19919;-64
2022/09/16 12:07:25;;;;;;;;;;;17.40;61.70;;;;;;5073097;28;19912;-63
2022/09/16 12:09:57;;;;;;;;;;;17.50;61.00;;;;;;5069111;28;19931;-64
2022/09/16 12:12:25;;;;;;;;;;;17.40;60.40;;;;;;5073582;28;19950;-64
2022/09/16 12:14:57;;;;;;;;;;;17.20;61.40;;;;;;5057472;28;19920;-64
2022/09/16 12:17:28;;;;;;;;;;;17.20;62.80;;;;;;5071839;28;20019;-63
2022/09/16 12:19:59;;;;;;;;;;;17.00;63.70;;;;;;5074645;28;21150;-65
2022/09/16 12:22:29;;;;;;;;;;;17.00;62.50;;;;;;5072997;28;20278;-64
2022/09/16 12:25:02;;;;;;;;;;;16.80;63.80;;;;;;5074771;28;19928;-64
2022/09/16 12:27:32;;;;;;;;;;;16.80;64.80;;;;;;5056574;28;20236;-64
2022/09/16 12:30:01;;;;;;;;;;;16.90;64.80;;;;;;5074300;28;19912;-64
2022/09/16 12:32:42;;;;;;;;;;;16.80;66.30;;;;;;5074654;28;20015;-63
2022/09/16 12:35:16;;;;;;;;;;;16.80;65.70;;;;;;5070809;28;19913;-64
2022/09/16 12:37:45;;;;;;;;;;;16.80;67.00;;;;;;5077354;28;19913;-64
2022/09/16 12:40:34;;;;;;;;;;;16.70;67.50;;;;;;5065480;28;19981;-64
2022/09/16 12:43:11;;;;;;;;;;;16.40;69.40;;;;;;5039771;28;19919;-64
2022/09/16 12:45:56;;;;;;;;;;;16.50;70.10;;;;;;5058268;28;19923;-64
2022/09/16 12:48:40;;;;;;;;;;;16.50;69.80;;;;;;5077575;28;19919;-63
2022/09/16 12:51:26;;;;;;;;;;;16.40;70.60;;;;;;5073347;28;19916;-64
2022/09/16 12:53:51;;;;;;;;;;;16.40;70.70;;;;;;5079800;28;19927;-63
2022/09/16 12:56:20;;;;;;;;;;;16.30;71.30;;;;;;5070048;28;19913;-64
2022/09/16 12:58:45;;;;;;;;;;;16.30;70.70;;;;;;5078171;28;19939;-63
2022/09/16 13:01:20;;;;;;;;;;;16.30;66.80;;;;;;5076499;28;19912;-63
2022/09/16 13:03:54;;;;;;;;;;;16.40;66.30;;;;;;5078511;28;20020;-63
2022/09/16 13:06:22;;;;;;;;;;;16.50;67.00;;;;;;5072022;28;19960;-64
2022/09/16 13:08:48;;;;;;;;;;;16.60;66.80;;;;;;5075037;28;19926;-64
2022/09/16 13:11:20;;;;;;;;;;;16.70;58.40;;;;;;5072698;28;19931;-64
2022/09/16 13:13:47;;;;;;;;;;;16.70;56.10;;;;;;5071272;28;19916;-63
2022/09/16 13:16:13;;;;;;;;;;;16.80;55.20;;;;;;5075534;28;19940;-64
2022/09/16 13:18:45;;;;;;;;;;;16.80;56.20;;;;;;5075276;28;20395;-63
2022/09/16 13:21:11;;;;;;;;;;;16.90;57.30;;;;;;5071971;28;19988;-64
2022/09/16 13:23:40;;;;;;;;;;;16.80;58.30;;;;;;5075361;28;19956;-64
2022/09/16 13:26:06;;;;;;;;;;;16.80;59.60;;;;;;5078453;28;20063;-64
2022/09/16 13:28:33;;;;;;;;;;;17.10;60.10;;;;;;5061604;28;19920;-64
2022/09/16 13:31:11;;;;;;;;;;;17.20;59.20;;;;;;5061165;28;19917;-64
2022/09/16 13:33:38;;;;;;;;;;;17.30;57.60;;;;;;5074227;28;19948;-63
2022/09/16 13:36:30;;;;;;;;;;;17.50;58.90;;;;;;5074675;28;19912;-64
2022/09/16 13:39:00;;;;;;;;;;;17.50;58.10;;;;;;5068366;28;19955;-64
2022/09/16 13:41:36;;;;;;;;;;;17.40;58.80;;;;;;5077718;28;19912;-64
2022/09/16 13:44:22;;;;;;;;;;;17.20;59.00;;;;;;5077657;28;19912;-64
2022/09/16 13:46:47;;;;;;;;;;;17.10;60.00;;;;;;5078850;28;19916;-64
2022/09/16 13:49:19;;;;;;;;;;;17.10;60.80;;;;;;5071424;28;19909;-64
2022/09/16 13:51:46;;;;;;;;;;;17.30;60.20;;;;;;5081543;28;19925;-64
2022/09/16 13:54:21;;;;;;;;;;;17.50;60.40;;;;;;5079793;28;19913;-64
2022/09/16 13:57:06;;;;;;;;;;;17.60;57.40;;;;;;5084171;28;19934;-64
2022/09/16 13:59:43;;;;;;;;;;;17.50;57.30;;;;;;5082702;28;19908;-64
2022/09/16 14:02:09;;;;;;;;;;;17.60;59.00;;;;;;5065461;28;19909;-64
2022/09/16 14:04:34;;;;;;;;;;;18.00;57.50;;;;;;5083517;28;19999;-65
2022/09/16 14:07:07;;;;;;;;;;;18.30;56.60;;;;;;5082218;28;19951;-64
2022/09/16 14:09:32;;;;;;;;;;;18.20;56.80;;;;;;5076761;28;19927;-64
2022/09/16 14:12:02;;;;;;;;;;;18.10;56.80;;;;;;5083190;28;19960;-65
2022/09/16 14:14:30;;;;;;;;;;;17.90;57.70;;;;;;5080217;28;19921;-64
2022/09/16 14:16:56;;;;;;;;;;;17.70;58.10;;;;;;5079702;28;19912;-66
2022/09/16 14:19:31;;;;;;;;;;;17.30;60.60;;;;;;5076305;28;19924;-65
2022/09/16 14:22:09;;;;;;;;;;;17.20;60.60;;;;;;5077553;28;19920;-64
2022/09/16 14:24:35;;;;;;;;;;;17.20;60.80;;;;;;5080776;28;20232;-64
2022/09/16 14:27:01;;;;;;;;;;;17.30;60.10;;;;;;5078566;28;19944;-64
2022/09/16 14:29:27;;;;;;;;;;;17.20;60.80;;;;;;5077877;28;19934;-63